Terminal Aerodrome Forecast
Issued by NWS Sterling, VA

Current Version | Previous Version | Graphics & Text | Print | Product List | Glossary On
Versions: 1 2 3 4 5 6 7 8 9 10 11 12 13 14 15 16 17 18
000
FTUS41 KLWX 260540
TAFMRB
TAF
KMRB 260540Z 2606/2706 20004KT P6SM SCT070 WS020/22035KT
     FM261300 19008KT P6SM BKN045
     FM261500 20014G20KT P6SM BKN200
     FM262300 27012KT P6SM -SHRA BKN040
     FM270200 32013G22KT P6SM -SHRA OVC025=

USA.gov is the U.S. government's official web portal to all federal, state and local government web resources and services.